Time;durP1;ratioP1;P1;durP2;ratioP2;P2;SDS_P1;SDS_P2;PMS_P1;PMS_P2;Temp;Humidity;BMP_temperature;BMP_pressure;BME280_temperature;BME280_humidity;BME280_pressure;Samples;Min_cycle;Max_cycle;Signal;HPM_P1;HPM_P2
2022/11/11 00:02:09;;;;;;;8.88;5.60;;;;;;;;;;5004121;28;20080;-70
2022/11/11 00:04:54;;;;;;;7.97;5.03;;;;;;;;;;5002158;28;20137;-70
2022/11/11 00:07:38;;;;;;;8.90;4.70;;;;;;;;;;5002158;28;20052;-70
2022/11/11 00:10:22;;;;;;;8.32;5.50;;;;;;;;;;5004099;28;20077;-70
2022/11/11 00:13:06;;;;;;;7.47;5.15;;;;;;;;;;5007225;28;20065;-69
2022/11/11 00:15:51;;;;;;;11.65;5.38;;;;;;;;;;4997010;28;20145;-69
2022/11/11 00:27:44;;;;;;;8.20;5.22;;;;;;;;;;5016012;28;20176;-68
2022/11/11 00:30:29;;;;;;;7.20;5.35;;;;;;;;;;5003351;28;20060;-69
2022/11/11 00:33:13;;;;;;;7.78;5.30;;;;;;;;;;5003625;28;20060;-69
2022/11/11 00:35:57;;;;;;;6.53;5.55;;;;;;;;;;5003547;28;20056;-70
2022/11/11 00:38:44;;;;;;;7.07;5.13;;;;;;;;;;5005073;28;20049;-70
2022/11/11 00:41:28;;;;;;;7.95;5.82;;;;;;;;;;5005089;28;20457;-70
2022/11/11 00:44:12;;;;;;;7.07;5.25;;;;;;;;;;5005390;28;20081;-70
2022/11/11 00:53:07;;;;;;;9.73;5.32;;;;;;;;;;5005264;28;20096;-69
2022/11/11 00:55:51;;;;;;;6.72;5.78;;;;;;;;;;4995568;28;20513;-70
2022/11/11 00:58:35;;;;;;;15.18;5.88;;;;;;;;;;5005163;28;20664;-70
2022/11/11 01:01:19;;;;;;;10.07;5.70;;;;;;;;;;5004361;28;20461;-70
2022/11/11 01:04:04;;;;;;;6.75;5.43;;;;;;;;;;5003448;28;20129;-70
2022/11/11 01:06:48;;;;;;;8.88;5.03;;;;;;;;;;5001861;28;20143;-70
2022/11/11 01:09:32;;;;;;;8.77;5.95;;;;;;;;;;5000697;28;20057;-70
2022/11/11 01:12:16;;;;;;;7.47;4.90;;;;;;;;;;5005232;28;20069;-70
2022/11/11 01:15:00;;;;;;;5.90;4.63;;;;;;;;;;5005836;28;20475;-70
2022/11/11 01:17:45;;;;;;;5.72;4.53;;;;;;;;;;5003309;28;20073;-70
2022/11/11 01:20:28;;;;;;;6.00;4.32;;;;;;;;;;5005859;28;20426;-70
2022/11/11 01:23:13;;;;;;;7.20;4.00;;;;;;;;;;5005034;28;20457;-69
2022/11/11 01:26:05;;;;;;;5.32;4.35;;;;;;;;;;4988418;28;20135;-69
2022/11/11 01:28:51;;;;;;;5.95;4.70;;;;;;;;;;5018505;28;20064;-70
2022/11/11 01:31:35;;;;;;;6.22;4.30;;;;;;;;;;5005209;28;20060;-70
2022/11/11 01:34:19;;;;;;;6.68;5.18;;;;;;;;;;5005586;28;20338;-70
2022/11/11 01:37:03;;;;;;;4.93;4.07;;;;;;;;;;5004445;28;20091;-70
2022/11/11 01:39:47;;;;;;;6.35;4.53;;;;;;;;;;4994571;28;20060;-69
2022/11/11 01:42:52;;;;;;;5.10;4.15;;;;;;;;;;5006524;28;20076;-69
2022/11/11 01:45:47;;;;;;;5.07;3.88;;;;;;;;;;5005655;28;20103;-70
2022/11/11 01:52:04;;;;;;;7.55;4.07;;;;;;;;;;5002984;28;20080;-70
2022/11/11 01:55:02;;;;;;;5.43;4.28;;;;;;;;;;5005072;28;20099;-70
2022/11/11 01:57:58;;;;;;;5.22;4.47;;;;;;;;;;5001496;28;20064;-70
2022/11/11 02:00:42;;;;;;;5.22;4.20;;;;;;;;;;5004569;28;20048;-70
2022/11/11 02:03:29;;;;;;;4.60;3.95;;;;;;;;;;5004102;28;20052;-70
2022/11/11 02:06:14;;;;;;;5.45;4.25;;;;;;;;;;5005040;28;20115;-70
2022/11/11 02:08:59;;;;;;;4.30;3.70;;;;;;;;;;5004148;28;20061;-70
2022/11/11 02:14:53;;;;;;;3.70;3.30;;;;;;;;;;5001456;28;20161;-69
2022/11/11 02:17:37;;;;;;;4.03;3.55;;;;;;;;;;5000714;28;20057;-70
2022/11/11 02:20:25;;;;;;;3.90;3.40;;;;;;;;;;5000468;28;20100;-68
2022/11/11 02:23:30;;;;;;;6.75;4.03;;;;;;;;;;5001695;28;20065;-70
2022/11/11 02:26:16;;;;;;;4.07;3.10;;;;;;;;;;4999138;28;20458;-70
2022/11/11 02:29:03;;;;;;;2.60;2.40;;;;;;;;;;5001644;28;20056;-70
2022/11/11 02:31:48;;;;;;;3.95;3.35;;;;;;;;;;4993806;28;20176;-70
2022/11/11 02:34:32;;;;;;;6.20;3.75;;;;;;;;;;5004194;28;20053;-70
2022/11/11 02:37:21;;;;;;;6.25;3.25;;;;;;;;;;5003466;28;20060;-70
2022/11/11 02:40:07;;;;;;;3.63;3.20;;;;;;;;;;5002395;28;20061;-70
2022/11/11 02:42:52;;;;;;;15.15;8.35;;;;;;;;;;5001982;28;20048;-70
2022/11/11 02:45:36;;;;;;;2.70;2.50;;;;;;;;;;5001725;28;21246;-70
2022/11/11 02:48:20;;;;;;;3.83;3.38;;;;;;;;;;5002450;28;20060;-70
2022/11/11 02:51:06;;;;;;;4.43;3.03;;;;;;;;;;5003023;28;20052;-70
2022/11/11 02:53:50;;;;;;;3.88;3.38;;;;;;;;;;5012545;28;20104;-70
2022/11/11 02:59:39;;;;;;;3.53;3.20;;;;;;;;;;5000329;28;20080;-70
2022/11/11 03:02:26;;;;;;;3.53;3.15;;;;;;;;;;5001137;28;20100;-70
2022/11/11 03:05:10;;;;;;;3.42;3.13;;;;;;;;;;5000192;28;21120;-70
2022/11/11 03:07:54;;;;;;;4.25;3.20;;;;;;;;;;4998614;28;20480;-69
2022/11/11 03:10:38;;;;;;;5.78;3.88;;;;;;;;;;5001159;28;20450;-70
2022/11/11 03:13:22;;;;;;;6.55;3.28;;;;;;;;;;4999375;28;20406;-70
2022/11/11 03:17:38;;;;;;;3.50;3.20;;;;;;;;;;4999561;28;20060;-70
2022/11/11 03:19:10;;;;;;;4.40;3.05;;;;;;;;;;5000879;28;20124;-69
2022/11/11 03:21:54;;;;;;;3.17;2.83;;;;;;;;;;4998442;28;20056;-70
2022/11/11 03:27:41;;;;;;;;;;;;;;;;;;4999960;28;20521;-70
2022/11/11 03:30:26;;;;;;;3.42;3.13;;;;;;;;;;5000525;28;20689;-69
2022/11/11 03:33:11;;;;;;;5.30;2.78;;;;;;;;;;5001169;28;20173;-70
2022/11/11 03:35:55;;;;;;;4.32;3.10;;;;;;;;;;4997732;28;20072;-69
2022/11/11 03:38:39;;;;;;;6.85;3.47;;;;;;;;;;5000118;28;20105;-69
2022/11/11 03:41:23;;;;;;;3.55;3.20;;;;;;;;;;5001152;28;20554;-70
2022/11/11 03:44:07;;;;;;;3.97;3.35;;;;;;;;;;5001742;28;20056;-70
2022/11/11 03:46:51;;;;;;;3.58;3.15;;;;;;;;;;5004840;28;20053;-70
2022/11/11 03:49:36;;;;;;;4.10;3.00;;;;;;;;;;5003806;28;20848;-70
2022/11/11 03:52:20;;;;;;;3.55;3.08;;;;;;;;;;5004969;28;20060;-70
2022/11/11 03:55:04;;;;;;;4.85;3.03;;;;;;;;;;5005059;28;20465;-70
2022/11/11 03:57:49;;;;;;;3.72;2.95;;;;;;;;;;5002084;28;20514;-70
2022/11/11 04:00:33;;;;;;;3.30;2.50;;;;;;;;;;5003844;28;20135;-70
2022/11/11 04:12:27;;;;;;;3.90;3.10;;;;;;;;;;5003344;28;20064;-69
2022/11/11 04:18:14;;;;;;;;;;;;;;;;;;4994120;28;20119;-69
2022/11/11 04:24:01;;;;;;;5.40;2.92;;;;;;;;;;4993312;28;20060;-69
2022/11/11 04:26:45;;;;;;;2.85;2.55;;;;;;;;;;5003473;28;20517;-69
2022/11/11 04:29:30;;;;;;;3.35;2.85;;;;;;;;;;5002875;28;21027;-69
2022/11/11 04:35:22;;;;;;;3.28;2.97;;;;;;;;;;5002768;28;20517;-70
2022/11/11 04:41:11;;;;;;;4.60;2.25;;;;;;;;;;5003171;28;20048;-69
2022/11/11 04:46:58;;;;;;;4.40;2.80;;;;;;;;;;5002588;28;20112;-68
2022/11/11 04:49:42;;;;;;;3.00;2.63;;;;;;;;;;4997871;28;20068;-71
2022/11/11 04:52:30;;;;;;;3.33;3.03;;;;;;;;;;5003460;28;20116;-70
2022/11/11 04:58:20;;;;;;;4.57;3.40;;;;;;;;;;4999713;28;20064;-69
2022/11/11 05:01:04;;;;;;;4.57;3.25;;;;;;;;;;5002986;28;20061;-71
2022/11/11 05:03:48;;;;;;;4.28;3.65;;;;;;;;;;4998249;28;20568;-71
2022/11/11 05:09:35;;;;;;;;;;;;;;;;;;5002451;28;20154;-72
2022/11/11 05:12:19;;;;;;;3.75;3.38;;;;;;;;;;5002590;28;19992;-72
2022/11/11 05:21:20;;;;;;;5.70;3.78;;;;;;;;;;5000964;28;20461;-72
2022/11/11 05:27:07;;;;;;;4.93;3.20;;;;;;;;;;4999904;28;20103;-72
2022/11/11 05:29:51;;;;;;;9.45;4.00;;;;;;;;;;5007060;28;20069;-72
2022/11/11 05:32:35;;;;;;;4.53;3.83;;;;;;;;;;5002110;28;20088;-72
2022/11/11 05:35:19;;;;;;;4.78;4.28;;;;;;;;;;5001133;28;20044;-72
2022/11/11 05:38:19;;;;;;;5.63;4.10;;;;;;;;;;5002164;28;20156;-72
2022/11/11 05:41:03;;;;;;;8.23;3.80;;;;;;;;;;5001581;28;20096;-72
2022/11/11 05:43:47;;;;;;;3.88;3.38;;;;;;;;;;4999403;28;20513;-72
2022/11/11 05:46:31;;;;;;;8.13;4.07;;;;;;;;;;5000493;28;20065;-72
2022/11/11 05:49:15;;;;;;;3.80;2.95;;;;;;;;;;4998545;28;20104;-71
2022/11/11 05:52:00;;;;;;;4.78;3.75;;;;;;;;;;4997327;28;20111;-70
2022/11/11 05:54:44;;;;;;;4.43;3.28;;;;;;;;;;5001252;28;20414;-70
2022/11/11 05:57:29;;;;;;;5.55;4.03;;;;;;;;;;5000907;28;20104;-70
2022/11/11 06:00:14;;;;;;;6.43;4.40;;;;;;;;;;5000904;28;20065;-69
2022/11/11 06:03:03;;;;;;;5.65;4.18;;;;;;;;;;5000474;28;20473;-70
2022/11/11 06:05:47;;;;;;;7.07;4.88;;;;;;;;;;4997983;28;20061;-70
2022/11/11 06:08:31;;;;;;;5.38;3.63;;;;;;;;;;5001023;28;20517;-72
2022/11/11 06:11:15;;;;;;;4.07;3.65;;;;;;;;;;5001537;28;20746;-71
2022/11/11 06:13:59;;;;;;;3.38;3.08;;;;;;;;;;4994376;28;20052;-71
2022/11/11 06:16:43;;;;;;;3.30;3.00;;;;;;;;;;5004014;28;20557;-71
2022/11/11 06:19:27;;;;;;;3.53;3.10;;;;;;;;;;5004137;28;20041;-72
2022/11/11 06:22:11;;;;;;;3.40;2.63;;;;;;;;;;5003523;28;20057;-72
2022/11/11 06:26:11;;;;;;;4.25;2.75;;;;;;;;;;5003480;28;20236;-71
2022/11/11 06:28:00;;;;;;;3.65;2.63;;;;;;;;;;4995119;28;20056;-72
2022/11/11 06:30:44;;;;;;;3.10;2.65;;;;;;;;;;5006340;28;20876;-72
2022/11/11 06:33:28;;;;;;;3.72;2.63;;;;;;;;;;5003320;28;20052;-72
2022/11/11 06:36:16;;;;;;;4.57;2.70;;;;;;;;;;5009035;28;20097;-72
2022/11/11 06:39:00;;;;;;;3.20;2.10;;;;;;;;;;5010471;28;20048;-72
2022/11/11 06:41:44;;;;;;;2.83;2.15;;;;;;;;;;5005837;28;20402;-73
2022/11/11 06:44:28;;;;;;;3.40;2.78;;;;;;;;;;5005493;28;20101;-73
2022/11/11 06:47:13;;;;;;;2.63;2.17;;;;;;;;;;5006524;28;20079;-73
2022/11/11 06:49:56;;;;;;;6.30;1.80;;;;;;;;;;5003503;28;20088;-72
2022/11/11 06:52:40;;;;;;;1.58;1.48;;;;;;;;;;5005279;28;20617;-72
2022/11/11 06:55:24;;;;;;;3.35;2.33;;;;;;;;;;5005853;28;20061;-72
2022/11/11 06:58:15;;;;;;;3.45;2.13;;;;;;;;;;5004407;28;20081;-72
2022/11/11 07:01:03;;;;;;;3.53;2.17;;;;;;;;;;5003496;28;20104;-72
2022/11/11 07:03:47;;;;;;;6.55;2.42;;;;;;;;;;5002969;28;20068;-72
2022/11/11 07:06:31;;;;;;;4.78;2.40;;;;;;;;;;4993469;28;20073;-73
2022/11/11 07:09:15;;;;;;;3.22;2.15;;;;;;;;;;5005934;28;20104;-72
2022/11/11 07:12:00;;;;;;;2.83;2.40;;;;;;;;;;4997155;28;20060;-71
2022/11/11 07:14:44;;;;;;;2.92;2.40;;;;;;;;;;5000848;28;20413;-71
2022/11/11 07:17:28;;;;;;;2.90;2.30;;;;;;;;;;5001357;28;20633;-72
2022/11/11 07:20:12;;;;;;;3.05;2.63;;;;;;;;;;5004436;28;20088;-72
2022/11/11 07:22:56;;;;;;;2.50;2.30;;;;;;;;;;4998006;28;20088;-72
2022/11/11 07:25:40;;;;;;;3.35;2.53;;;;;;;;;;5003740;28;20099;-71
2022/11/11 07:28:24;;;;;;;2.40;2.00;;;;;;;;;;5000440;28;20068;-72
2022/11/11 07:31:08;;;;;;;2.30;2.10;;;;;;;;;;5009051;28;20544;-71
2022/11/11 07:33:53;;;;;;;2.55;2.20;;;;;;;;;;5001719;28;20312;-71
2022/11/11 07:36:37;;;;;;;2.60;2.10;;;;;;;;;;4999960;28;20517;-71
2022/11/11 07:39:21;;;;;;;2.53;2.05;;;;;;;;;;5002610;28;20057;-71
2022/11/11 07:42:05;;;;;;;2.03;1.83;;;;;;;;;;5004140;28;20981;-71
2022/11/11 07:44:49;;;;;;;2.00;1.90;;;;;;;;;;5004416;28;20406;-71
2022/11/11 07:47:34;;;;;;;3.30;1.70;;;;;;;;;;5003144;28;20053;-72
2022/11/11 07:50:18;;;;;;;2.25;2.05;;;;;;;;;;5003482;28;20107;-71
2022/11/11 07:53:02;;;;;;;2.00;1.80;;;;;;;;;;5005283;28;20060;-70
2022/11/11 07:55:47;;;;;;;1.55;1.45;;;;;;;;;;5004026;28;20064;-72
2022/11/11 07:58:31;;;;;;;2.45;1.75;;;;;;;;;;5004048;28;20098;-70
2022/11/11 08:01:15;;;;;;;5.03;1.73;;;;;;;;;;5002810;28;20458;-71
2022/11/11 08:03:59;;;;;;;2.80;1.42;;;;;;;;;;4994399;28;20442;-71
2022/11/11 08:06:43;;;;;;;2.22;1.80;;;;;;;;;;5003810;28;20048;-70
2022/11/11 08:09:28;;;;;;;1.25;1.15;;;;;;;;;;5002953;28;20649;-70
2022/11/11 08:15:15;;;;;;;2.85;1.60;;;;;;;;;;5004049;28;20057;-71
2022/11/11 08:17:59;;;;;;;1.80;1.60;;;;;;;;;;5001227;28;20058;-71
2022/11/11 08:20:43;;;;;;;1.77;1.40;;;;;;;;;;5003590;28;20044;-73
2022/11/11 08:23:34;;;;;;;1.65;1.50;;;;;;;;;;5002525;28;20155;-71
2022/11/11 08:26:20;;;;;;;1.48;1.38;;;;;;;;;;5003142;28;20333;-72
2022/11/11 08:29:04;;;;;;;2.53;1.70;;;;;;;;;;5003693;28;20100;-70
2022/11/11 08:31:51;;;;;;;1.65;1.55;;;;;;;;;;5003942;28;20096;-71
2022/11/11 08:34:36;;;;;;;1.98;1.83;;;;;;;;;;5000282;28;20068;-71
2022/11/11 08:37:20;;;;;;;1.65;1.55;;;;;;;;;;5002434;28;21104;-71
2022/11/11 08:40:04;;;;;;;1.10;1.02;;;;;;;;;;5003358;28;20475;-71
2022/11/11 08:42:49;;;;;;;2.17;1.98;;;;;;;;;;5003352;28;20052;-71
2022/11/11 08:45:33;;;;;;;1.35;1.25;;;;;;;;;;5001536;28;20065;-71
2022/11/11 08:48:17;;;;;;;1.98;1.50;;;;;;;;;;5002925;28;20120;-71
2022/11/11 08:51:01;;;;;;;1.70;1.60;;;;;;;;;;5003303;28;20445;-69
2022/11/11 08:53:45;;;;;;;2.20;2.00;;;;;;;;;;5003057;28;20112;-71
2022/11/11 08:56:30;;;;;;;6.43;2.03;;;;;;;;;;5002094;28;20060;-69
2022/11/11 08:59:14;;;;;;;4.15;1.80;;;;;;;;;;5002000;28;20592;-70
2022/11/11 09:01:58;;;;;;;1.75;1.65;;;;;;;;;;4984999;28;20075;-71
2022/11/11 09:04:42;;;;;;;1.92;1.73;;;;;;;;;;5003503;28;20053;-71
2022/11/11 09:07:26;;;;;;;1.90;1.65;;;;;;;;;;5000157;28;20060;-72
2022/11/11 09:10:13;;;;;;;2.05;1.85;;;;;;;;;;5003222;28;20069;-70
2022/11/11 09:12:58;;;;;;;2.05;1.80;;;;;;;;;;5003006;28;20120;-75
2022/11/11 09:15:42;;;;;;;1.70;1.48;;;;;;;;;;5002471;28;20053;-75
2022/11/11 09:18:26;;;;;;;2.00;1.75;;;;;;;;;;5000709;28;20180;-73
2022/11/11 09:21:10;;;;;;;2.15;1.30;;;;;;;;;;5002603;28;20060;-72
2022/11/11 09:23:54;;;;;;;1.08;1.05;;;;;;;;;;4999141;28;20061;-74
2022/11/11 09:26:38;;;;;;;2.78;1.63;;;;;;;;;;5006165;28;20533;-74
2022/11/11 09:29:23;;;;;;;1.77;1.67;;;;;;;;;;5004165;28;20097;-74
2022/11/11 09:32:07;;;;;;;1.83;1.45;;;;;;;;;;5002585;28;20111;-73
2022/11/11 09:34:51;;;;;;;2.83;1.58;;;;;;;;;;5002268;28;20056;-73
2022/11/11 09:37:35;;;;;;;2.65;2.00;;;;;;;;;;5001910;28;20188;-72
2022/11/11 09:40:22;;;;;;;2.65;2.15;;;;;;;;;;5002304;28;20079;-73
2022/11/11 09:43:28;;;;;;;3.92;1.80;;;;;;;;;;5001871;28;20088;-72
2022/11/11 09:46:20;;;;;;;2.25;1.80;;;;;;;;;;5002792;28;20057;-70
2022/11/11 09:49:41;;;;;;;4.35;1.65;;;;;;;;;;5005584;28;20057;-71
2022/11/11 09:52:29;;;;;;;2.00;1.58;;;;;;;;;;5001530;28;20529;-73
2022/11/11 09:55:41;;;;;;;4.30;1.75;;;;;;;;;;5004003;28;20060;-72
2022/11/11 09:58:31;;;;;;;2.40;1.73;;;;;;;;;;5003298;28;20095;-72
2022/11/11 10:01:25;;;;;;;2.40;1.80;;;;;;;;;;5002550;28;20106;-72
2022/11/11 10:04:15;;;;;;;1.88;1.75;;;;;;;;;;4999635;28;20494;-72
2022/11/11 10:07:09;;;;;;;1.75;1.65;;;;;;;;;;5003496;28;20072;-70
2022/11/11 10:10:05;;;;;;;1.80;1.58;;;;;;;;;;4994795;28;20065;-72
2022/11/11 10:12:55;;;;;;;6.55;1.73;;;;;;;;;;5002840;28;20049;-73
2022/11/11 10:15:53;;;;;;;3.95;1.60;;;;;;;;;;5013541;28;20247;-74
2022/11/11 10:18:55;;;;;;;2.90;1.50;;;;;;;;;;5001756;28;20112;-73
2022/11/11 10:21:51;;;;;;;2.70;1.83;;;;;;;;;;5001449;28;20060;-72
2022/11/11 10:24:40;;;;;;;2.55;2.00;;;;;;;;;;5001712;28;20076;-72
2022/11/11 10:27:25;;;;;;;1.88;1.70;;;;;;;;;;5000327;28;20056;-73
2022/11/11 10:30:20;;;;;;;1.85;1.67;;;;;;;;;;5000246;28;20177;-74
2022/11/11 10:33:21;;;;;;;1.67;1.52;;;;;;;;;;5000676;28;20097;-72
2022/11/11 10:36:12;;;;;;;4.30;2.10;;;;;;;;;;4987888;28;20060;-72
2022/11/11 10:39:02;;;;;;;3.75;1.95;;;;;;;;;;5000390;28;20450;-71
2022/11/11 10:41:47;;;;;;;2.22;1.70;;;;;;;;;;4999875;28;20060;-73
2022/11/11 10:44:35;;;;;;;3.83;1.50;;;;;;;;;;5000848;28;20056;-73
2022/11/11 10:47:32;;;;;;;2.00;1.83;;;;;;;;;;4999732;28;20055;-74
2022/11/11 10:50:22;;;;;;;1.70;1.60;;;;;;;;;;4992987;28;20084;-71
2022/11/11 10:53:17;;;;;;;3.67;1.90;;;;;;;;;;5000670;28;20099;-71
2022/11/11 10:56:42;;;;;;;1.85;1.75;;;;;;;;;;4980695;28;20088;-72
2022/11/11 10:59:50;;;;;;;2.90;1.58;;;;;;;;;;4970226;28;20068;-72
2022/11/11 11:03:05;;;;;;;3.28;1.90;;;;;;;;;;5000691;28;20057;-73
2022/11/11 11:05:57;;;;;;;2.13;1.90;;;;;;;;;;4998472;28;20405;-72
2022/11/11 11:08:44;;;;;;;2.05;1.85;;;;;;;;;;5000318;28;20211;-69
2022/11/11 11:11:35;;;;;;;1.98;1.88;;;;;;;;;;4998450;28;20123;-71
2022/11/11 11:14:26;;;;;;;2.15;1.95;;;;;;;;;;5000914;28;20048;-71
2022/11/11 11:17:20;;;;;;;2.17;1.90;;;;;;;;;;5000105;28;20104;-73
2022/11/11 11:20:15;;;;;;;2.67;1.95;;;;;;;;;;4997485;28;20710;-74
2022/11/11 11:23:00;;;;;;;2.25;1.85;;;;;;;;;;4999884;28;20083;-70
2022/11/11 11:25:53;;;;;;;3.03;2.08;;;;;;;;;;5000296;28;20605;-71
2022/11/11 11:28:57;;;;;;;2.70;2.50;;;;;;;;;;5000061;28;20120;-73
2022/11/11 11:31:42;;;;;;;2.53;2.33;;;;;;;;;;4998257;28;20092;-71
2022/11/11 11:34:51;;;;;;;9.88;2.17;;;;;;;;;;4999891;28;20052;-73
2022/11/11 11:37:49;;;;;;;2.33;2.22;;;;;;;;;;5000020;28;20144;-72
2022/11/11 11:40:45;;;;;;;2.20;1.95;;;;;;;;;;5000893;28;20828;-73
2022/11/11 11:43:37;;;;;;;2.72;2.28;;;;;;;;;;4998750;28;20100;-72
2022/11/11 11:46:32;;;;;;;3.40;2.50;;;;;;;;;;4998986;28;20049;-71
2022/11/11 11:49:24;;;;;;;2.03;1.80;;;;;;;;;;4994385;28;20107;-72
2022/11/11 11:52:16;;;;;;;2.63;2.38;;;;;;;;;;4992889;28;20112;-73
2022/11/11 11:55:25;;;;;;;4.00;2.00;;;;;;;;;;4998165;28;20049;-72
2022/11/11 11:58:36;;;;;;;3.00;1.98;;;;;;;;;;4996855;28;20052;-73
2022/11/11 12:01:32;;;;;;;2.35;1.98;;;;;;;;;;5011369;28;20053;-70
2022/11/11 12:04:58;;;;;;;2.33;2.13;;;;;;;;;;4995993;28;20060;-71
2022/11/11 12:08:21;;;;;;;2.15;1.90;;;;;;;;;;5001028;28;20056;-72
2022/11/11 12:11:35;;;;;;;2.30;2.10;;;;;;;;;;4986809;28;20099;-72
2022/11/11 12:14:22;;;;;;;5.22;2.22;;;;;;;;;;4988188;28;21185;-72
2022/11/11 12:17:35;;;;;;;2.10;2.00;;;;;;;;;;4999376;28;20057;-71
2022/11/11 12:20:25;;;;;;;2.88;2.60;;;;;;;;;;5000481;28;20057;-71
2022/11/11 12:23:27;;;;;;;4.63;2.60;;;;;;;;;;5002741;28;20076;-72
2022/11/11 12:26:23;;;;;;;4.18;2.42;;;;;;;;;;4999096;28;20060;-71
2022/11/11 12:29:13;;;;;;;2.55;2.00;;;;;;;;;;5002717;28;20064;-71
2022/11/11 12:32:35;;;;;;;4.35;2.30;;;;;;;;;;4998414;28;20132;-71
2022/11/11 12:35:40;;;;;;;4.60;2.38;;;;;;;;;;4993836;28;20068;-70
2022/11/11 12:38:49;;;;;;;4.47;2.40;;;;;;;;;;4994648;28;20048;-71
2022/11/11 12:41:41;;;;;;;2.50;2.30;;;;;;;;;;4999051;28;20514;-73
2022/11/11 12:44:45;;;;;;;2.58;2.38;;;;;;;;;;5000128;28;20064;-72
2022/11/11 12:47:57;;;;;;;3.95;2.40;;;;;;;;;;4988927;28;21032;-73
2022/11/11 12:50:49;;;;;;;3.22;2.45;;;;;;;;;;5000294;28;20054;-72
2022/11/11 12:54:03;;;;;;;2.72;2.20;;;;;;;;;;4998156;28;20044;-73
2022/11/11 12:56:56;;;;;;;3.95;2.08;;;;;;;;;;5000446;28;20077;-72
2022/11/11 12:59:55;;;;;;;;;;;;;;;;;;4999386;28;20099;-73
2022/11/11 13:02:59;;;;;;;2.67;2.10;;;;;;;;;;4999709;28;20108;-71
2022/11/11 13:05:46;;;;;;;2.53;2.28;;;;;;;;;;4963957;28;20111;-70
2022/11/11 13:08:49;;;;;;;3.38;2.17;;;;;;;;;;4999249;28;20104;-70
2022/11/11 13:11:42;;;;;;;3.55;2.30;;;;;;;;;;4987141;28;20052;-70
2022/11/11 13:14:48;;;;;;;4.25;2.50;;;;;;;;;;4999280;28;20092;-71
2022/11/11 13:17:32;;;;;;;2.60;2.13;;;;;;;;;;4997896;28;20411;-71
2022/11/11 13:20:41;;;;;;;2.55;2.33;;;;;;;;;;4998730;28;20057;-71
2022/11/11 13:23:25;;;;;;;2.55;2.35;;;;;;;;;;4997163;28;20115;-70
2022/11/11 13:26:42;;;;;;;2.88;2.63;;;;;;;;;;5000894;28;20060;-70
2022/11/11 13:29:51;;;;;;;7.07;2.55;;;;;;;;;;4994546;28;20128;-73
2022/11/11 13:32:49;;;;;;;8.32;2.65;;;;;;;;;;4999366;28;20045;-70
2022/11/11 13:35:49;;;;;;;2.72;2.10;;;;;;;;;;5000271;28;20823;-71
2022/11/11 13:38:38;;;;;;;2.70;2.50;;;;;;;;;;5000780;28;20091;-71
2022/11/11 13:41:30;;;;;;;2.60;2.40;;;;;;;;;;4999897;28;20048;-71
2022/11/11 13:44:23;;;;;;;3.60;2.90;;;;;;;;;;4999961;28;20048;-71
2022/11/11 13:47:15;;;;;;;3.30;2.50;;;;;;;;;;5000519;28;20049;-71
2022/11/11 13:50:10;;;;;;;9.15;2.75;;;;;;;;;;4998154;28;20165;-70
2022/11/11 13:53:01;;;;;;;2.78;2.50;;;;;;;;;;5000451;28;20049;-72
2022/11/11 13:55:46;;;;;;;3.28;2.97;;;;;;;;;;4999628;28;20219;-72
2022/11/11 13:58:34;;;;;;;5.57;2.63;;;;;;;;;;4991494;28;20632;-72
2022/11/11 14:01:18;;;;;;;3.40;3.10;;;;;;;;;;5001116;28;20065;-71
2022/11/11 14:04:07;;;;;;;3.40;2.40;;;;;;;;;;4999010;28;20064;-72
2022/11/11 14:06:53;;;;;;;3.60;2.95;;;;;;;;;;4998131;28;20189;-73
2022/11/11 14:10:01;;;;;;;3.53;2.60;;;;;;;;;;5001764;28;20076;-73
2022/11/11 14:12:53;;;;;;;2.78;2.58;;;;;;;;;;4998256;28;20111;-72
2022/11/11 14:15:49;;;;;;;2.80;2.40;;;;;;;;;;5001111;28;20057;-73
2022/11/11 14:18:37;;;;;;;3.55;2.58;;;;;;;;;;5001726;28;20045;-73
2022/11/11 14:21:43;;;;;;;2.90;2.60;;;;;;;;;;4998182;28;20056;-74
2022/11/11 14:24:38;;;;;;;4.22;2.53;;;;;;;;;;4999334;28;20121;-73
2022/11/11 14:27:29;;;;;;;3.15;2.65;;;;;;;;;;4999129;28;20445;-74
2022/11/11 14:30:37;;;;;;;2.90;2.67;;;;;;;;;;5000649;28;20064;-71
2022/11/11 14:33:43;;;;;;;3.53;2.50;;;;;;;;;;4990337;28;20150;-71
2022/11/11 14:36:33;;;;;;;2.92;2.42;;;;;;;;;;4998500;28;20087;-71
2022/11/11 14:39:20;;;;;;;3.05;2.70;;;;;;;;;;4999660;28;20853;-71
2022/11/11 14:42:24;;;;;;;3.72;2.65;;;;;;;;;;4998379;28;20108;-71
2022/11/11 14:45:31;;;;;;;6.38;2.42;;;;;;;;;;5000525;28;20080;-71
2022/11/11 14:48:46;;;;;;;4.80;2.42;;;;;;;;;;4996005;28;20075;-70
2022/11/11 14:51:49;;;;;;;9.77;2.65;;;;;;;;;;5000017;28;20084;-71
2022/11/11 14:54:50;;;;;;;3.63;2.53;;;;;;;;;;5000314;28;20509;-72
2022/11/11 14:57:36;;;;;;;3.08;2.70;;;;;;;;;;4993740;28;20907;-71
2022/11/11 15:00:24;;;;;;;4.45;3.13;;;;;;;;;;4986224;28;20056;-70
2022/11/11 15:03:27;;;;;;;6.38;3.58;;;;;;;;;;5000584;28;20088;-70
2022/11/11 15:06:25;;;;;;;3.42;2.70;;;;;;;;;;4998356;28;20141;-70
2022/11/11 15:09:37;;;;;;;7.35;4.97;;;;;;;;;;5000704;28;20173;-71
2022/11/11 15:12:41;;;;;;;4.43;3.00;;;;;;;;;;4997115;28;20103;-70
2022/11/11 15:15:30;;;;;;;3.20;2.90;;;;;;;;;;4995664;28;20562;-71
2022/11/11 15:18:40;;;;;;;5.60;2.95;;;;;;;;;;4997593;28;20081;-70
2022/11/11 15:21:35;;;;;;;2.50;2.30;;;;;;;;;;4999086;28;21115;-71
2022/11/11 15:24:36;;;;;;;4.93;2.72;;;;;;;;;;4997180;28;20061;-70
2022/11/11 15:27:41;;;;;;;3.38;2.60;;;;;;;;;;4999225;28;20057;-70
2022/11/11 15:30:46;;;;;;;3.15;2.80;;;;;;;;;;4997915;28;20061;-71
2022/11/11 15:33:49;;;;;;;7.00;3.00;;;;;;;;;;4999960;28;20053;-71
2022/11/11 15:37:00;;;;;;;3.47;2.80;;;;;;;;;;5000369;28;20143;-71
2022/11/11 15:39:48;;;;;;;4.32;3.22;;;;;;;;;;5003261;28;20049;-71
2022/11/11 15:42:37;;;;;;;4.90;3.30;;;;;;;;;;5003678;28;21112;-70
2022/11/11 15:45:32;;;;;;;4.72;2.78;;;;;;;;;;5004606;28;20508;-70
2022/11/11 15:48:20;;;;;;;3.20;2.90;;;;;;;;;;5001297;28;20671;-71
2022/11/11 15:51:16;;;;;;;5.47;3.53;;;;;;;;;;5004531;28;20494;-73
2022/11/11 15:54:18;;;;;;;6.45;3.33;;;;;;;;;;5002071;28;20073;-73
2022/11/11 15:57:26;;;;;;;3.90;3.38;;;;;;;;;;5003811;28;20053;-73
2022/11/11 16:00:22;;;;;;;3.80;3.42;;;;;;;;;;4986897;28;20064;-70
2022/11/11 16:03:14;;;;;;;5.40;3.63;;;;;;;;;;5001026;28;20053;-69
2022/11/11 16:06:02;;;;;;;5.22;3.75;;;;;;;;;;5000168;28;20116;-70
2022/11/11 16:08:52;;;;;;;5.40;4.00;;;;;;;;;;5002082;28;20052;-70
2022/11/11 16:11:38;;;;;;;5.43;3.90;;;;;;;;;;5001961;28;20057;-70
2022/11/11 16:14:42;;;;;;;7.10;4.07;;;;;;;;;;5003477;28;20088;-70
2022/11/11 16:17:31;;;;;;;5.63;4.28;;;;;;;;;;5001653;28;20104;-71
2022/11/11 16:20:27;;;;;;;7.70;4.47;;;;;;;;;;5003013;28;20580;-70
2022/11/11 16:23:16;;;;;;;8.65;4.80;;;;;;;;;;5002894;28;20060;-70
2022/11/11 16:26:03;;;;;;;10.20;7.95;;;;;;;;;;5000576;28;20136;-70
2022/11/11 16:28:51;;;;;;;17.27;10.85;;;;;;;;;;5001661;28;20482;-70
2022/11/11 16:31:38;;;;;;;18.85;12.02;;;;;;;;;;5002255;28;20060;-71
2022/11/11 16:34:27;;;;;;;12.32;8.95;;;;;;;;;;5002216;28;20060;-70
2022/11/11 16:37:14;;;;;;;10.82;7.82;;;;;;;;;;5002276;28;20060;-69
2022/11/11 16:40:25;;;;;;;29.15;16.65;;;;;;;;;;4998846;28;20069;-68
2022/11/11 16:43:22;;;;;;;62.42;35.42;;;;;;;;;;5002809;28;20145;-69
2022/11/11 16:46:35;;;;;;;40.33;24.27;;;;;;;;;;4991034;28;20517;-71
2022/11/11 16:49:40;;;;;;;32.45;20.75;;;;;;;;;;5001719;28;20457;-71
2022/11/11 16:52:24;;;;;;;25.75;16.00;;;;;;;;;;4999718;28;20052;-71
2022/11/11 16:55:16;;;;;;;27.95;14.10;;;;;;;;;;5002412;28;20116;-71
2022/11/11 16:58:10;;;;;;;21.17;14.40;;;;;;;;;;4994122;28;20749;-71
2022/11/11 17:01:00;;;;;;;21.48;12.18;;;;;;;;;;4994001;28;20103;-71
2022/11/11 17:03:56;;;;;;;9.65;6.40;;;;;;;;;;5001879;28;20586;-71
2022/11/11 17:06:54;;;;;;;13.68;8.38;;;;;;;;;;5003013;28;20052;-71
2022/11/11 17:09:40;;;;;;;11.35;7.00;;;;;;;;;;5001556;28;20049;-71
2022/11/11 17:12:31;;;;;;;15.88;7.20;;;;;;;;;;5001119;28;20497;-71
2022/11/11 17:15:16;;;;;;;11.48;6.75;;;;;;;;;;5002640;28;20049;-72
2022/11/11 17:18:00;;;;;;;10.35;6.93;;;;;;;;;;4998995;28;20056;-71
2022/11/11 17:20:45;;;;;;;10.30;7.20;;;;;;;;;;5002103;28;20053;-71
2022/11/11 17:23:30;;;;;;;14.23;8.23;;;;;;;;;;4999972;28;20621;-71
2022/11/11 17:26:16;;;;;;;27.60;17.33;;;;;;;;;;5001550;28;20131;-70
2022/11/11 17:29:01;;;;;;;161.30;77.68;;;;;;;;;;5000888;28;20057;-71
2022/11/11 17:31:45;;;;;;;126.78;62.05;;;;;;;;;;4996811;28;20056;-70
2022/11/11 17:34:30;;;;;;;90.47;46.83;;;;;;;;;;4999864;28;20132;-71
2022/11/11 17:37:14;;;;;;;93.22;51.80;;;;;;;;;;5000848;28;20056;-70
2022/11/11 17:39:58;;;;;;;62.97;34.70;;;;;;;;;;4995715;28;20165;-70
2022/11/11 17:42:42;;;;;;;32.42;20.15;;;;;;;;;;5000858;28;20406;-70
2022/11/11 17:45:27;;;;;;;42.05;23.73;;;;;;;;;;4999456;28;20056;-70
2022/11/11 17:48:11;;;;;;;30.48;20.42;;;;;;;;;;5000707;28;20485;-70
2022/11/11 17:50:55;;;;;;;26.55;17.10;;;;;;;;;;5000571;28;20084;-72
2022/11/11 17:53:39;;;;;;;34.10;17.75;;;;;;;;;;4999984;28;20052;-72
2022/11/11 17:56:25;;;;;;;28.88;17.33;;;;;;;;;;5000171;28;20052;-72
2022/11/11 17:59:09;;;;;;;19.75;13.40;;;;;;;;;;5001360;28;20196;-73
2022/11/11 18:01:53;;;;;;;15.20;10.77;;;;;;;;;;4997588;28;20072;-72
2022/11/11 18:04:38;;;;;;;33.20;20.52;;;;;;;;;;4997148;28;20108;-70
2022/11/11 18:07:22;;;;;;;32.83;20.13;;;;;;;;;;4999474;28;20739;-70
2022/11/11 18:10:08;;;;;;;15.52;10.82;;;;;;;;;;4987736;28;20061;-70